sensor_id;sensor_type;location;lat;lon;timestamp;pressure;altitude;pressure_sealevel;temperature;humidity
33845;BME280;20145;43.118;25.694;2023-03-04T00:01:18;99639.28;;;7.43;99.20
33845;BME280;20145;43.118;25.694;2023-03-04T00:03:44;99634.16;;;7.41;98.66
33845;BME280;20145;43.118;25.694;2023-03-04T00:06:09;99632.47;;;7.46;98.96
33845;BME280;20145;43.118;25.694;2023-03-04T00:08:35;99638.47;;;7.48;98.83
33845;BME280;20145;43.118;25.694;2023-03-04T00:11:00;99628.19;;;7.50;98.56
33845;BME280;20145;43.118;25.694;2023-03-04T00:13:26;99641.03;;;7.53;98.83
33845;BME280;20145;43.118;25.694;2023-03-04T00:15:51;99629.06;;;7.49;98.82
33845;BME280;20145;43.118;25.694;2023-03-04T00:18:17;99642.75;;;7.52;99.08
33845;BME280;20145;43.118;25.694;2023-03-04T00:20:45;99637.63;;;7.52;99.16
33845;BME280;20145;43.118;25.694;2023-03-04T00:23:11;99630.75;;;7.44;98.89
33845;BME280;20145;43.118;25.694;2023-03-04T00:25:36;99632.44;;;7.45;98.29
33845;BME280;20145;43.118;25.694;2023-03-04T00:28:02;99619.53;;;7.31;98.88
33845;BME280;20145;43.118;25.694;2023-03-04T00:30:28;99628.13;;;7.36;98.80
33845;BME280;20145;43.118;25.694;2023-03-04T00:32:53;99628.13;;;7.39;98.85
33845;BME280;20145;43.118;25.694;2023-03-04T00:35:19;99616.13;;;7.30;98.14
33845;BME280;20145;43.118;25.694;2023-03-04T00:37:44;99613.56;;;7.30;98.42
33845;BME280;20145;43.118;25.694;2023-03-04T00:40:10;99614.44;;;7.34;98.95
33845;BME280;20145;43.118;25.694;2023-03-04T00:42:36;99608.44;;;7.33;98.36
33845;BME280;20145;43.118;25.694;2023-03-04T00:45:03;99608.44;;;7.32;98.65
33845;BME280;20145;43.118;25.694;2023-03-04T00:47:28;99611.00;;;7.30;98.55
33845;BME280;20145;43.118;25.694;2023-03-04T00:49:54;99620.41;;;7.27;98.24
33845;BME280;20145;43.118;25.694;2023-03-04T00:52:19;99605.81;;;7.17;99.32
33845;BME280;20145;43.118;25.694;2023-03-04T00:54:45;99608.34;;;7.12;98.42
33845;BME280;20145;43.118;25.694;2023-03-04T00:57:10;99601.47;;;7.02;99.35
33845;BME280;20145;43.118;25.694;2023-03-04T00:59:36;99601.44;;;7.00;98.28
33845;BME280;20145;43.118;25.694;2023-03-04T01:02:02;99604.84;;;6.96;99.50
33845;BME280;20145;43.118;25.694;2023-03-04T01:04:27;99604.84;;;6.96;98.66
33845;BME280;20145;43.118;25.694;2023-03-04T01:06:53;99609.09;;;6.94;99.19
33845;BME280;20145;43.118;25.694;2023-03-04T01:09:18;99606.50;;;6.92;98.17
33845;BME280;20145;43.118;25.694;2023-03-04T01:11:44;99610.78;;;6.89;97.93
33845;BME280;20145;43.118;25.694;2023-03-04T01:14:10;99608.22;;;6.87;98.28
33845;BME280;20145;43.118;25.694;2023-03-04T01:16:35;99596.22;;;6.83;97.31
33845;BME280;20145;43.118;25.694;2023-03-04T01:19:01;99607.31;;;6.79;97.92
33845;BME280;20145;43.118;25.694;2023-03-04T01:21:26;99608.16;;;6.81;97.83
33845;BME280;20145;43.118;25.694;2023-03-04T01:23:52;99615.03;;;6.84;97.68
33845;BME280;20145;43.118;25.694;2023-03-04T01:26:18;99616.72;;;6.83;98.50
33845;BME280;20145;43.118;25.694;2023-03-04T01:28:43;99615.03;;;6.84;98.21
33845;BME280;20145;43.118;25.694;2023-03-04T01:31:09;99613.28;;;6.81;98.98
33845;BME280;20145;43.118;25.694;2023-03-04T01:33:34;99600.44;;;6.75;98.61
33845;BME280;20145;43.118;25.694;2023-03-04T01:36:00;99609.88;;;6.76;98.40
33845;BME280;20145;43.118;25.694;2023-03-04T01:38:26;99612.44;;;6.76;99.27
33845;BME280;20145;43.118;25.694;2023-03-04T01:40:51;99606.41;;;6.71;98.34
33845;BME280;20145;43.118;25.694;2023-03-04T01:43:26;99621.78;;;6.68;98.53
33845;BME280;20145;43.118;25.694;2023-03-04T01:45:53;99620.78;;;6.54;99.68
33845;BME280;20145;43.118;25.694;2023-03-04T01:48:25;99625.84;;;6.44;100.00
33845;BME280;20145;43.118;25.694;2023-03-04T01:50:52;99613.13;;;6.58;100.00
33845;BME280;20145;43.118;25.694;2023-03-04T01:53:25;99614.09;;;6.73;100.00
33845;BME280;20145;43.118;25.694;2023-03-04T01:55:55;99603.03;;;6.80;99.81
33845;BME280;20145;43.118;25.694;2023-03-04T01:58:25;99594.50;;;6.87;99.57
33845;BME280;20145;43.118;25.694;2023-03-04T02:00:52;99605.69;;;6.93;99.64
33845;BME280;20145;43.118;25.694;2023-03-04T02:03:18;99600.56;;;6.97;98.94
33845;BME280;20145;43.118;25.694;2023-03-04T02:05:48;99592.84;;;6.92;99.09
33845;BME280;20145;43.118;25.694;2023-03-04T02:08:15;99602.25;;;6.91;98.49
33845;BME280;20145;43.118;25.694;2023-03-04T02:10:42;99595.41;;;6.87;97.95
33845;BME280;20145;43.118;25.694;2023-03-04T02:13:08;99591.16;;;6.94;98.33
33845;BME280;20145;43.118;25.694;2023-03-04T02:15:34;99592.88;;;7.00;97.70
33845;BME280;20145;43.118;25.694;2023-03-04T02:18:00;99588.59;;;7.00;97.78
33845;BME280;20145;43.118;25.694;2023-03-04T02:23:28;99583.44;;;6.91;98.02
33845;BME280;20145;43.118;25.694;2023-03-04T02:28:43;99596.22;;;6.82;97.67
33845;BME280;20145;43.118;25.694;2023-03-04T02:33:52;99599.56;;;6.68;98.21
33845;BME280;20145;43.118;25.694;2023-03-04T02:36:18;99596.06;;;6.62;97.27
33845;BME280;20145;43.118;25.694;2023-03-04T02:38:44;99583.22;;;6.54;97.81
33845;BME280;20145;43.118;25.694;2023-03-04T02:41:15;99594.34;;;6.59;98.20
33845;BME280;20145;43.118;25.694;2023-03-04T02:43:44;99607.22;;;6.65;98.09
33845;BME280;20145;43.118;25.694;2023-03-04T02:46:12;99595.25;;;6.66;98.45
33845;BME280;20145;43.118;25.694;2023-03-04T02:48:38;99594.38;;;6.64;97.86
33845;BME280;20145;43.118;25.694;2023-03-04T02:51:04;99591.78;;;6.59;97.82
33845;BME280;20145;43.118;25.694;2023-03-04T02:53:29;99590.91;;;6.56;98.21
33845;BME280;20145;43.118;25.694;2023-03-04T02:55:55;99592.59;;;6.52;98.23
33845;BME280;20145;43.118;25.694;2023-03-04T02:58:20;99588.31;;;6.50;98.46
33845;BME280;20145;43.118;25.694;2023-03-04T03:00:46;99595.13;;;6.46;98.45
33845;BME280;20145;43.118;25.694;2023-03-04T03:03:12;99598.53;;;6.46;98.81
33845;BME280;20145;43.118;25.694;2023-03-04T03:05:38;99591.75;;;6.53;99.47
33845;BME280;20145;43.118;25.694;2023-03-04T03:08:04;99585.81;;;6.57;98.92
33845;BME280;20145;43.118;25.694;2023-03-04T03:10:30;99584.09;;;6.61;99.49
33845;BME280;20145;43.118;25.694;2023-03-04T03:12:56;99584.13;;;6.62;99.23
33845;BME280;20145;43.118;25.694;2023-03-04T03:15:22;99583.31;;;6.73;98.70
33845;BME280;20145;43.118;25.694;2023-03-04T03:17:47;99591.06;;;6.77;99.63
33845;BME280;20145;43.118;25.694;2023-03-04T03:20:14;99584.25;;;6.82;99.38
33845;BME280;20145;43.118;25.694;2023-03-04T03:22:40;99587.66;;;6.81;98.73
33845;BME280;20145;43.118;25.694;2023-03-04T03:25:06;99588.56;;;6.89;99.48
33845;BME280;20145;43.118;25.694;2023-03-04T03:27:32;99589.41;;;6.88;98.84
33845;BME280;20145;43.118;25.694;2023-03-04T03:29:58;99592.84;;;6.95;98.50
33845;BME280;20145;43.118;25.694;2023-03-04T03:32:24;99586.91;;;6.96;99.62
33845;BME280;20145;43.118;25.694;2023-03-04T03:34:49;99577.50;;;7.03;99.40
33845;BME280;20145;43.118;25.694;2023-03-04T03:37:15;99574.97;;;7.06;98.75
33845;BME280;20145;43.118;25.694;2023-03-04T03:39:40;99573.28;;;7.11;99.62
33845;BME280;20145;43.118;25.694;2023-03-04T03:42:06;99580.97;;;7.11;99.10
33845;BME280;20145;43.118;25.694;2023-03-04T03:44:32;99583.53;;;7.11;99.01
33845;BME280;20145;43.118;25.694;2023-03-04T03:46:57;99589.41;;;6.85;98.15
33845;BME280;20145;43.118;25.694;2023-03-04T03:49:23;99592.84;;;6.90;97.98
33845;BME280;20145;43.118;25.694;2023-03-04T03:51:48;99559.41;;;6.72;97.46
33845;BME280;20145;43.118;25.694;2023-03-04T03:54:14;99592.78;;;6.84;98.01
33845;BME280;20145;43.118;25.694;2023-03-04T03:56:40;99590.22;;;6.83;98.93
33845;BME280;20145;43.118;25.694;2023-03-04T03:59:05;99593.75;;;6.96;98.16
33845;BME280;20145;43.118;25.694;2023-03-04T04:01:31;99597.09;;;6.90;98.53
33845;BME280;20145;43.118;25.694;2023-03-04T04:03:58;99592.88;;;6.98;98.13
33845;BME280;20145;43.118;25.694;2023-03-04T04:06:24;99594.59;;;7.04;97.76
33845;BME280;20145;43.118;25.694;2023-03-04T04:08:49;99586.09;;;7.05;97.99
33845;BME280;20145;43.118;25.694;2023-03-04T04:11:15;99590.34;;;7.01;97.80
33845;BME280;20145;43.118;25.694;2023-03-04T04:13:41;99592.03;;;7.01;98.85
33845;BME280;20145;43.118;25.694;2023-03-04T04:16:07;99593.81;;;7.12;97.76
33845;BME280;20145;43.118;25.694;2023-03-04T04:18:33;99588.69;;;7.20;97.71
33845;BME280;20145;43.118;25.694;2023-03-04T04:20:59;99593.91;;;7.29;97.60
33845;BME280;20145;43.118;25.694;2023-03-04T04:23:24;99597.34;;;7.37;97.87
33845;BME280;20145;43.118;25.694;2023-03-04T04:25:50;99598.22;;;7.44;98.10
33845;BME280;20145;43.118;25.694;2023-03-04T04:28:15;99598.25;;;7.53;97.77
33845;BME280;20145;43.118;25.694;2023-03-04T04:30:41;99589.72;;;7.60;97.83
33845;BME280;20145;43.118;25.694;2023-03-04T04:33:08;99590.59;;;7.63;96.82
33845;BME280;20145;43.118;25.694;2023-03-04T04:35:34;99588.03;;;7.63;97.42
33845;BME280;20145;43.118;25.694;2023-03-04T04:38:01;99586.31;;;7.63;96.67
33845;BME280;20145;43.118;25.694;2023-03-04T04:40:26;99590.56;;;7.61;96.94
33845;BME280;20145;43.118;25.694;2023-03-04T04:42:52;99586.28;;;7.57;97.37
33845;BME280;20145;43.118;25.694;2023-03-04T04:45:17;99576.88;;;7.54;97.05
33845;BME280;20145;43.118;25.694;2023-03-04T04:47:43;99585.41;;;7.55;97.25
33845;BME280;20145;43.118;25.694;2023-03-04T04:50:09;99580.28;;;7.52;97.43
33845;BME280;20145;43.118;25.694;2023-03-04T04:52:35;99586.25;;;7.51;97.32
33845;BME280;20145;43.118;25.694;2023-03-04T04:55:01;99588.81;;;7.48;97.96
33845;BME280;20145;43.118;25.694;2023-03-04T04:57:26;99592.25;;;7.47;98.18
33845;BME280;20145;43.118;25.694;2023-03-04T04:59:52;99596.50;;;7.40;98.65
33845;BME280;20145;43.118;25.694;2023-03-04T05:02:18;99603.28;;;7.30;98.37
33845;BME280;20145;43.118;25.694;2023-03-04T05:04:44;99604.13;;;7.28;99.45
33845;BME280;20145;43.118;25.694;2023-03-04T05:07:11;99604.16;;;7.26;99.11
33845;BME280;20145;43.118;25.694;2023-03-04T05:09:37;99591.28;;;7.20;98.55
33845;BME280;20145;43.118;25.694;2023-03-04T05:12:02;99598.13;;;7.23;99.20
33845;BME280;20145;43.118;25.694;2023-03-04T05:14:28;99605.84;;;7.27;99.31
33845;BME280;20145;43.118;25.694;2023-03-04T05:16:53;99611.00;;;7.33;99.04
33845;BME280;20145;43.118;25.694;2023-03-04T05:19:20;99610.19;;;7.34;99.16
33845;BME280;20145;43.118;25.694;2023-03-04T05:21:45;99612.75;;;7.34;98.70
33845;BME280;20145;43.118;25.694;2023-03-04T05:24:11;99610.19;;;7.34;99.15
33845;BME280;20145;43.118;25.694;2023-03-04T05:26:36;99600.72;;;7.27;98.78
33845;BME280;20145;43.118;25.694;2023-03-04T05:29:03;99624.75;;;7.46;98.91
33845;BME280;20145;43.118;25.694;2023-03-04T05:31:29;99623.09;;;7.54;99.87
33845;BME280;20145;43.118;25.694;2023-03-04T05:33:55;99628.22;;;7.59;99.57
33845;BME280;20145;43.118;25.694;2023-03-04T05:36:21;99623.06;;;7.59;98.69
33845;BME280;20145;43.118;25.694;2023-03-04T05:38:49;99623.09;;;7.64;98.55
33845;BME280;20145;43.118;25.694;2023-03-04T05:41:15;99633.41;;;7.65;98.44
33845;BME280;20145;43.118;25.694;2023-03-04T05:43:43;99631.72;;;7.73;98.28
33845;BME280;20145;43.118;25.694;2023-03-04T05:46:13;99629.13;;;7.69;98.20
33845;BME280;20145;43.118;25.694;2023-03-04T05:48:39;99630.78;;;7.59;95.94
33845;BME280;20145;43.118;25.694;2023-03-04T05:51:05;99632.50;;;7.54;96.25
33845;BME280;20145;43.118;25.694;2023-03-04T05:53:30;99636.75;;;7.56;96.52
33845;BME280;20145;43.118;25.694;2023-03-04T05:55:56;99639.31;;;7.52;96.61
33845;BME280;20145;43.118;25.694;2023-03-04T05:58:24;99640.16;;;7.51;95.45
33845;BME280;20145;43.118;25.694;2023-03-04T06:00:50;99635.88;;;7.44;95.37
33845;BME280;20145;43.118;25.694;2023-03-04T06:03:18;99647.00;;;7.46;96.31
33845;BME280;20145;43.118;25.694;2023-03-04T06:05:44;99632.50;;;7.60;96.18
33845;BME280;20145;43.118;25.694;2023-03-04T06:08:10;99632.53;;;7.66;96.04
33845;BME280;20145;43.118;25.694;2023-03-04T06:10:37;99644.56;;;7.73;95.79
33845;BME280;20145;43.118;25.694;2023-03-04T06:13:03;99632.50;;;7.65;95.02
33845;BME280;20145;43.118;25.694;2023-03-04T06:15:28;99635.09;;;7.69;95.97
33845;BME280;20145;43.118;25.694;2023-03-04T06:17:55;99626.56;;;7.75;94.87
33845;BME280;20145;43.118;25.694;2023-03-04T06:20:21;99633.47;;;7.93;94.66
33845;BME280;20145;43.118;25.694;2023-03-04T06:22:46;99642.03;;;7.93;93.86
33845;BME280;20145;43.118;25.694;2023-03-04T06:25:12;99636.03;;;8.00;94.30
33845;BME280;20145;43.118;25.694;2023-03-04T06:27:37;99637.78;;;8.11;94.28
33845;BME280;20145;43.118;25.694;2023-03-04T06:30:04;99635.22;;;8.12;92.75
33845;BME280;20145;43.118;25.694;2023-03-04T06:32:30;99625.78;;;8.14;93.24
33845;BME280;20145;43.118;25.694;2023-03-04T06:34:55;99635.22;;;8.18;93.75
33845;BME280;20145;43.118;25.694;2023-03-04T06:37:21;99629.22;;;8.30;93.36
33845;BME280;20145;43.118;25.694;2023-03-04T06:39:47;99631.84;;;8.44;91.83
33845;BME280;20145;43.118;25.694;2023-03-04T06:42:13;99630.13;;;8.60;92.30
33845;BME280;20145;43.118;25.694;2023-03-04T06:44:38;99626.69;;;8.67;90.92
33845;BME280;20145;43.118;25.694;2023-03-04T06:47:04;99622.38;;;8.83;91.84
33845;BME280;20145;43.118;25.694;2023-03-04T06:49:30;99630.06;;;9.00;89.89
33845;BME280;20145;43.118;25.694;2023-03-04T06:51:56;99631.75;;;9.11;89.38
33845;BME280;20145;43.118;25.694;2023-03-04T06:54:21;99634.28;;;9.22;89.26
33845;BME280;20145;43.118;25.694;2023-03-04T06:56:47;99640.25;;;9.33;88.23
33845;BME280;20145;43.118;25.694;2023-03-04T06:59:13;99636.81;;;9.45;88.68
33845;BME280;20145;43.118;25.694;2023-03-04T07:01:38;99641.91;;;9.54;87.10
33845;BME280;20145;43.118;25.694;2023-03-04T07:04:04;99635.91;;;9.52;87.12
33845;BME280;20145;43.118;25.694;2023-03-04T07:06:30;99633.28;;;9.68;87.84
33845;BME280;20145;43.118;25.694;2023-03-04T07:08:58;99634.06;;;9.79;86.89
33845;BME280;20145;43.118;25.694;2023-03-04T07:11:25;99641.72;;;9.96;86.57
33845;BME280;20145;43.118;25.694;2023-03-04T07:13:55;99639.03;;;10.08;86.33
33845;BME280;20145;43.118;25.694;2023-03-04T07:16:22;99638.97;;;10.19;84.39
33845;BME280;20145;43.118;25.694;2023-03-04T07:18:48;99642.41;;;10.29;85.24
33845;BME280;20145;43.118;25.694;2023-03-04T07:21:15;99636.31;;;10.36;85.20
33845;BME280;20145;43.118;25.694;2023-03-04T07:23:41;99637.09;;;10.48;84.27
33845;BME280;20145;43.118;25.694;2023-03-04T07:26:06;99636.13;;;10.62;82.88
33845;BME280;20145;43.118;25.694;2023-03-04T07:28:32;99642.94;;;10.67;82.19
33845;BME280;20145;43.118;25.694;2023-03-04T07:31:29;99630.84;;;10.76;81.89
33845;BME280;20145;43.118;25.694;2023-03-04T07:34:04;99627.47;;;10.67;81.31
33845;BME280;20145;43.118;25.694;2023-03-04T07:36:31;99639.56;;;10.58;79.96
33845;BME280;20145;43.118;25.694;2023-03-04T07:38:57;99632.63;;;10.66;80.60
33845;BME280;20145;43.118;25.694;2023-03-04T07:41:24;99623.16;;;10.68;79.69
33845;BME280;20145;43.118;25.694;2023-03-04T07:43:51;99623.34;;;10.42;77.67
33845;BME280;20145;43.118;25.694;2023-03-04T07:46:20;99629.31;;;10.52;79.10
33845;BME280;20145;43.118;25.694;2023-03-04T07:48:46;99627.63;;;10.51;78.10
33845;BME280;20145;43.118;25.694;2023-03-04T07:51:14;99625.78;;;10.65;78.95
33845;BME280;20145;43.118;25.694;2023-03-04T07:53:44;99631.56;;;10.88;77.42
33845;BME280;20145;43.118;25.694;2023-03-04T07:56:20;99629.63;;;11.10;76.29
33845;BME280;20145;43.118;25.694;2023-03-04T07:58:46;99637.94;;;11.37;75.55
33845;BME280;20145;43.118;25.694;2023-03-04T08:01:18;99636.84;;;11.56;76.21
33845;BME280;20145;43.118;25.694;2023-03-04T08:03:44;99642.78;;;11.63;74.82
33845;BME280;20145;43.118;25.694;2023-03-04T08:06:12;99634.66;;;11.21;79.09
33845;BME280;20145;43.118;25.694;2023-03-04T08:08:39;99645.63;;;10.57;83.73
33845;BME280;20145;43.118;25.694;2023-03-04T08:11:07;99636.25;;;10.43;84.49
33845;BME280;20145;43.118;25.694;2023-03-04T08:13:33;99627.44;;;10.69;83.74
33845;BME280;20145;43.118;25.694;2023-03-04T08:15:59;99624.81;;;10.72;78.62
33845;BME280;20145;43.118;25.694;2023-03-04T08:18:25;99614.38;;;10.86;78.56
33845;BME280;20145;43.118;25.694;2023-03-04T08:20:51;99617.56;;;11.12;79.11
33845;BME280;20145;43.118;25.694;2023-03-04T08:23:18;99615.50;;;11.41;76.33
33845;BME280;20145;43.118;25.694;2023-03-04T08:25:45;99615.25;;;11.60;75.55
33845;BME280;20145;43.118;25.694;2023-03-04T08:28:11;99613.28;;;11.79;76.33
33845;BME280;20145;43.118;25.694;2023-03-04T08:30:40;99613.47;;;11.66;76.16
33845;BME280;20145;43.118;25.694;2023-03-04T08:33:06;99614.34;;;11.63;76.57
33845;BME280;20145;43.118;25.694;2023-03-04T08:35:35;99609.22;;;11.61;75.82
33845;BME280;20145;43.118;25.694;2023-03-04T08:38:01;99605.88;;;11.52;76.52
33845;BME280;20145;43.118;25.694;2023-03-04T08:40:26;99603.97;;;11.66;75.75
33845;BME280;20145;43.118;25.694;2023-03-04T08:42:52;99605.63;;;11.73;74.78
33845;BME280;20145;43.118;25.694;2023-03-04T08:45:18;99599.44;;;11.83;75.85
33845;BME280;20145;43.118;25.694;2023-03-04T08:47:44;99589.06;;;11.85;74.86
33845;BME280;20145;43.118;25.694;2023-03-04T08:50:10;99600.44;;;11.72;74.57
33845;BME280;20145;43.118;25.694;2023-03-04T08:52:36;99601.16;;;11.86;74.58
33845;BME280;20145;43.118;25.694;2023-03-04T08:55:02;99594.22;;;11.90;76.36
33845;BME280;20145;43.118;25.694;2023-03-04T08:57:28;99595.91;;;11.92;76.44
33845;BME280;20145;43.118;25.694;2023-03-04T08:59:54;99591.66;;;11.85;77.58
33845;BME280;20145;43.118;25.694;2023-03-04T09:02:20;99591.63;;;11.90;75.67
33845;BME280;20145;43.118;25.694;2023-03-04T09:04:46;99584.72;;;11.89;75.46
33845;BME280;20145;43.118;25.694;2023-03-04T09:07:11;99581.34;;;11.82;76.07
33845;BME280;20145;43.118;25.694;2023-03-04T09:09:39;99573.59;;;11.82;76.22
33845;BME280;20145;43.118;25.694;2023-03-04T09:12:05;99577.75;;;11.94;74.86
33845;BME280;20145;43.118;25.694;2023-03-04T09:14:32;99572.91;;;11.69;75.56
33845;BME280;20145;43.118;25.694;2023-03-04T09:17:03;99567.16;;;11.50;75.35
33845;BME280;20145;43.118;25.694;2023-03-04T09:19:29;99573.16;;;11.52;77.91
33845;BME280;20145;43.118;25.694;2023-03-04T09:21:56;99579.84;;;10.98;79.16
33845;BME280;20145;43.118;25.694;2023-03-04T09:24:24;99580.63;;;11.03;76.75
33845;BME280;20145;43.118;25.694;2023-03-04T09:26:51;99574.28;;;11.30;76.87
33845;BME280;20145;43.118;25.694;2023-03-04T09:29:17;99574.88;;;11.52;76.21
33845;BME280;20145;43.118;25.694;2023-03-04T09:31:43;99574.75;;;11.63;77.47
33845;BME280;20145;43.118;25.694;2023-03-04T09:34:09;99573.66;;;11.79;75.74
33845;BME280;20145;43.118;25.694;2023-03-04T09:36:34;99579.03;;;11.64;76.04
33845;BME280;20145;43.118;25.694;2023-03-04T09:39:02;99557.72;;;11.46;75.38
33845;BME280;20145;43.118;25.694;2023-03-04T09:44:12;99571.88;;;11.82;76.24
33845;BME280;20145;43.118;25.694;2023-03-04T09:46:40;99562.34;;;11.89;76.45
33845;BME280;20145;43.118;25.694;2023-03-04T09:49:10;99562.09;;;12.06;75.53
33845;BME280;20145;43.118;25.694;2023-03-04T09:51:46;99550.69;;;12.16;73.92
33845;BME280;20145;43.118;25.694;2023-03-04T09:56:59;99564.19;;;12.35;74.21
33845;BME280;20145;43.118;25.694;2023-03-04T09:59:45;99563.09;;;12.50;72.89
33845;BME280;20145;43.118;25.694;2023-03-04T10:02:50;99554.91;;;12.71;72.29
33845;BME280;20145;43.118;25.694;2023-03-04T10:05:25;99550.69;;;12.67;72.24
33845;BME280;20145;43.118;25.694;2023-03-04T10:07:57;99544.41;;;12.79;70.91
33845;BME280;20145;43.118;25.694;2023-03-04T10:10:30;99538.88;;;12.53;69.92
33845;BME280;20145;43.118;25.694;2023-03-04T10:12:57;99537.69;;;12.69;68.44
33845;BME280;20145;43.118;25.694;2023-03-04T10:15:40;99529.63;;;12.86;69.29
33845;BME280;20145;43.118;25.694;2023-03-04T10:18:18;99527.91;;;12.85;69.21
33845;BME280;20145;43.118;25.694;2023-03-04T10:20:56;99525.25;;;12.89;70.31
33845;BME280;20145;43.118;25.694;2023-03-04T10:23:27;99511.41;;;12.45;68.64
33845;BME280;20145;43.118;25.694;2023-03-04T10:25:54;99513.00;;;12.53;69.20
33845;BME280;20145;43.118;25.694;2023-03-04T10:28:25;99502.75;;;12.46;69.58
33845;BME280;20145;43.118;25.694;2023-03-04T10:31:05;99500.19;;;12.45;70.37
33845;BME280;20145;43.118;25.694;2023-03-04T10:33:35;99496.19;;;12.28;72.33
33845;BME280;20145;43.118;25.694;2023-03-04T10:38:38;99493.84;;;12.15;72.14
33845;BME280;20145;43.118;25.694;2023-03-04T10:41:20;99487.94;;;12.07;70.92
33845;BME280;20145;43.118;25.694;2023-03-04T10:44:14;99486.97;;;12.12;70.99
33845;BME280;20145;43.118;25.694;2023-03-04T10:46:43;99484.09;;;12.29;72.26
33845;BME280;20145;43.118;25.694;2023-03-04T10:49:14;99483.25;;;12.28;69.34
33845;BME280;20145;43.118;25.694;2023-03-04T10:51:49;99473.81;;;12.26;70.23
33845;BME280;20145;43.118;25.694;2023-03-04T10:56:58;99469.94;;;12.48;70.98
33845;BME280;20145;43.118;25.694;2023-03-04T10:59:28;99470.50;;;12.64;69.81
33845;BME280;20145;43.118;25.694;2023-03-04T11:04:49;99460.63;;;12.83;69.22
33845;BME280;20145;43.118;25.694;2023-03-04T11:07:15;99458.84;;;12.87;68.95
33845;BME280;20145;43.118;25.694;2023-03-04T11:09:43;99448.28;;;12.96;69.26
33845;BME280;20145;43.118;25.694;2023-03-04T11:12:11;99441.47;;;12.92;69.11
33845;BME280;20145;43.118;25.694;2023-03-04T11:14:47;99440.22;;;12.69;71.50
33845;BME280;20145;43.118;25.694;2023-03-04T11:17:39;99435.13;;;12.65;70.76
33845;BME280;20145;43.118;25.694;2023-03-04T11:20:16;99432.72;;;12.54;71.63
33845;BME280;20145;43.118;25.694;2023-03-04T11:22:46;99424.91;;;12.12;71.58
33845;BME280;20145;43.118;25.694;2023-03-04T11:25:26;99429.50;;;12.41;71.48
33845;BME280;20145;43.118;25.694;2023-03-04T11:27:55;99422.19;;;12.63;72.93
33845;BME280;20145;43.118;25.694;2023-03-04T11:30:44;99420.13;;;12.37;72.33
33845;BME280;20145;43.118;25.694;2023-03-04T11:38:40;99413.78;;;12.94;70.81
33845;BME280;20145;43.118;25.694;2023-03-04T11:41:19;99401.50;;;13.43;69.92
33845;BME280;20145;43.118;25.694;2023-03-04T11:43:46;99396.41;;;13.74;68.18
33845;BME280;20145;43.118;25.694;2023-03-04T11:46:31;99391.28;;;13.71;67.26
33845;BME280;20145;43.118;25.694;2023-03-04T11:54:31;99388.25;;;12.35;72.91
33845;BME280;20145;43.118;25.694;2023-03-04T11:57:08;99377.38;;;12.19;74.04
33845;BME280;20145;43.118;25.694;2023-03-04T12:11:04;99366.91;;;12.67;71.43
33845;BME280;20145;43.118;25.694;2023-03-04T12:16:20;99374.22;;;12.89;71.76
33845;BME280;20145;43.118;25.694;2023-03-04T12:40:42;99345.72;;;12.89;70.58
33845;BME280;20145;43.118;25.694;2023-03-04T12:55:02;99329.34;;;13.93;66.37
33845;BME280;20145;43.118;25.694;2023-03-04T12:57:29;99320.63;;;13.97;65.84
33845;BME280;20145;43.118;25.694;2023-03-04T13:03:12;99318.50;;;13.78;68.15
33845;BME280;20145;43.118;25.694;2023-03-04T13:14:25;99312.03;;;13.93;66.12
33845;BME280;20145;43.118;25.694;2023-03-04T13:16:54;99309.53;;;13.90;64.16
33845;BME280;20145;43.118;25.694;2023-03-04T13:19:51;99308.94;;;14.12;64.74
33845;BME280;20145;43.118;25.694;2023-03-04T13:28:06;99285.94;;;14.31;64.90
33845;BME280;20145;43.118;25.694;2023-03-04T13:30:42;99281.38;;;14.37;64.77
33845;BME280;20145;43.118;25.694;2023-03-04T13:36:04;99281.81;;;13.92;67.99
33845;BME280;20145;43.118;25.694;2023-03-04T13:38:34;99269.34;;;13.74;68.11
33845;BME280;20145;43.118;25.694;2023-03-04T13:51:23;99253.53;;;14.14;64.63
33845;BME280;20145;43.118;25.694;2023-03-04T13:59:27;99241.41;;;14.43;64.02
33845;BME280;20145;43.118;25.694;2023-03-04T14:04:46;99234.78;;;14.62;63.82
33845;BME280;20145;43.118;25.694;2023-03-04T14:07:25;99234.25;;;14.79;63.72
33845;BME280;20145;43.118;25.694;2023-03-04T14:12:37;99228.63;;;14.93;62.30
33845;BME280;20145;43.118;25.694;2023-03-04T14:17:44;99227.88;;;14.89;62.59
33845;BME280;20145;43.118;25.694;2023-03-04T14:20:22;99217.81;;;14.79;63.37
33845;BME280;20145;43.118;25.694;2023-03-04T14:22:50;99220.63;;;14.72;63.10
33845;BME280;20145;43.118;25.694;2023-03-04T14:25:20;99224.16;;;14.70;62.79
33845;BME280;20145;43.118;25.694;2023-03-04T14:27:47;99223.75;;;14.56;63.42
33845;BME280;20145;43.118;25.694;2023-03-04T14:30:25;99210.28;;;14.43;64.17
33845;BME280;20145;43.118;25.694;2023-03-04T14:32:52;99206.22;;;14.34;65.21
33845;BME280;20145;43.118;25.694;2023-03-04T14:35:27;99204.69;;;14.27;64.69
33845;BME280;20145;43.118;25.694;2023-03-04T14:38:06;99205.78;;;14.20;65.10
33845;BME280;20145;43.118;25.694;2023-03-04T14:40:43;99205.97;;;14.14;65.86
33845;BME280;20145;43.118;25.694;2023-03-04T14:43:16;99209.00;;;13.98;65.65
33845;BME280;20145;43.118;25.694;2023-03-04T14:45:44;99193.81;;;13.86;64.70
33845;BME280;20145;43.118;25.694;2023-03-04T14:48:36;99187.22;;;13.74;66.12
33845;BME280;20145;43.118;25.694;2023-03-04T14:51:01;99196.66;;;13.77;67.21
33845;BME280;20145;43.118;25.694;2023-03-04T14:53:29;99188.22;;;13.70;65.94
33845;BME280;20145;43.118;25.694;2023-03-04T14:56:07;99191.84;;;13.65;65.43
33845;BME280;20145;43.118;25.694;2023-03-04T14:58:59;99185.91;;;13.59;66.58
33845;BME280;20145;43.118;25.694;2023-03-04T15:01:32;99187.16;;;13.46;66.02
33845;BME280;20145;43.118;25.694;2023-03-04T15:06:30;99185.72;;;13.36;69.05
33845;BME280;20145;43.118;25.694;2023-03-04T15:09:15;99174.03;;;13.20;70.54